»·PEaware :: N5MJ KSAN-KLAS

N5MJ :: KSAN-KLAS

FLIGHT INFORMATION

Flight Status: Arrived
Operator: Privately registered:
United States
More flights under this callsign
Pilot: Josh T. (20631)
Aircraft: GATES LEARJET LEARJET 35/36
(LJ35)
More flights by this aircraft type
Origin: KSAN San Diego Intl-Lindbergh
United States
Destination: KLAS McCarran Intl
United States
More flights between these airports :: More routes between these airports
Route: PADRZ2 CHKNN SEBBY YELAH MISEN KEPEC6
File this flight plan on PilotEdge
Remarks:
Altitude:
(Current/Filed)
29,000ft
Speed:
(Current/Filed)
425kts
Departed: 14-Jan-20 10:13 PM
Arrived: 14-Jan-20 11:01 PM
Distance/Time
Traveled:
224nm/0:48
Distance/Time
To Go:
Arrived

Flight Plot

Page will automatically refresh every two minutes.

Flight plan parsing failed; only flown route is shown


Map Options




Map Legend


Flown Route
Filed Route
Departure Airport
Arrival Airport
Navaid (VOR, NDB)
Fix

Horizontal Profiles

Position Reports

Time Latitude Longitude Heading Altitude Ground
Speed
14-Jan-20 21:37 32.734576 -117.179518 14 17ft 0kts
14-Jan-20 21:38 32.734576 -117.179518 14 17ft 0kts
14-Jan-20 21:39 32.734576 -117.179518 14 17ft 0kts
14-Jan-20 21:40 32.734576 -117.179518 14 17ft 0kts
14-Jan-20 21:41 32.734576 -117.179518 14 17ft 0kts
14-Jan-20 21:42 32.734576 -117.179518 14 17ft 0kts
14-Jan-20 21:43 32.734576 -117.179518 14 17ft 0kts
14-Jan-20 21:44 32.734576 -117.179518 14 17ft 0kts
14-Jan-20 21:45 32.734576 -117.179518 14 17ft 0kts
14-Jan-20 21:46 32.734576 -117.179518 14 17ft 0kts
14-Jan-20 21:47 32.734576 -117.179518 14 17ft 0kts
14-Jan-20 21:48 32.734576 -117.179518 14 17ft 0kts
14-Jan-20 21:49 32.734576 -117.179518 14 17ft 0kts
14-Jan-20 21:50 32.734576 -117.179518 14 17ft 0kts
14-Jan-20 21:50 32.734576 -117.179518 14 17ft 0kts
14-Jan-20 21:52 32.734577 -117.179518 14 18ft 0kts
14-Jan-20 21:53 32.734583 -117.179516 14 18ft 0kts
14-Jan-20 21:53 32.734585 -117.179515 14 18ft 0kts
14-Jan-20 21:54 32.734587 -117.179515 14 18ft 0kts
14-Jan-20 21:55 32.734590 -117.179514 14 18ft 0kts
14-Jan-20 21:56 32.734623 -117.179504 14 18ft 0kts
14-Jan-20 21:57 32.734625 -117.179503 14 18ft 0kts
14-Jan-20 21:58 32.734628 -117.179502 14 18ft 0kts
14-Jan-20 21:59 32.734638 -117.179499 14 18ft 0kts
14-Jan-20 22:00 32.734639 -117.179499 14 18ft 0kts
14-Jan-20 22:01 32.734686 -117.179329 126 18ft 4kts
14-Jan-20 22:02 32.732219 -117.179389 103 18ft 13kts
14-Jan-20 22:03 32.731045 -117.175613 144 18ft 0kts
14-Jan-20 22:04 32.731043 -117.175611 143 18ft 0kts
14-Jan-20 22:05 32.731041 -117.175609 143 18ft 0kts
14-Jan-20 22:06 32.731039 -117.175607 143 18ft 0kts
14-Jan-20 22:07 32.731037 -117.175606 143 18ft 0kts
14-Jan-20 22:08 32.731035 -117.175604 143 18ft 0kts
14-Jan-20 22:09 32.731033 -117.175603 143 18ft 0kts
14-Jan-20 22:10 32.731033 -117.175602 143 18ft 0kts
14-Jan-20 22:11 32.730302 -117.175407 213 18ft 9kts
14-Jan-20 22:12 32.734653 -117.194824 283 414ft 194kts
14-Jan-20 22:13 32.755793 -117.253276 317 7271ft 219kts
14-Jan-20 22:14 32.796665 -117.313531 303 12872ft 242kts
14-Jan-20 22:15 32.844350 -117.388321 305 15037ft 358kts
14-Jan-20 22:16 32.909805 -117.489900 305 18287ft 392kts
14-Jan-20 22:17 32.976845 -117.597648 304 19871ft 391kts
14-Jan-20 22:18 33.040748 -117.694210 304 22782ft 330kts
14-Jan-20 22:19 33.106369 -117.772690 315 24136ft 339kts
14-Jan-20 22:20 33.186671 -117.832314 351 25197ft 364kts
14-Jan-20 22:21 33.287958 -117.824825 358 26494ft 362kts
14-Jan-20 22:22 33.389876 -117.817501 357 27649ft 376kts
14-Jan-20 22:23 33.498682 -117.811365 357 29162ft 416kts
14-Jan-20 22:24 33.621529 -117.804449 357 29167ft 465kts
14-Jan-20 22:25 33.752731 -117.796778 357 29167ft 474kts
14-Jan-20 22:26 33.884960 -117.789110 358 29165ft 475kts
14-Jan-20 22:27 34.016894 -117.780002 4 29164ft 480kts
14-Jan-20 22:28 34.136637 -117.706904 42 29159ft 498kts
14-Jan-20 22:29 34.225642 -117.577994 48 29150ft 501kts
14-Jan-20 22:30 34.314728 -117.447664 48 29137ft 502kts
14-Jan-20 22:31 34.403336 -117.317109 48 29136ft 503kts
14-Jan-20 22:32 34.492013 -117.185915 48 29134ft 504kts
14-Jan-20 22:33 34.580794 -117.054079 48 29134ft 505kts
14-Jan-20 22:34 34.669904 -116.921260 48 29117ft 507kts
14-Jan-20 22:35 34.758788 -116.788275 48 29093ft 508kts
14-Jan-20 22:36 34.849902 -116.656260 42 29085ft 507kts
14-Jan-20 22:37 34.951682 -116.550552 34 27691ft 455kts
14-Jan-20 22:38 35.047606 -116.457211 34 25583ft 429kts
14-Jan-20 22:39 35.135267 -116.362112 41 24091ft 408kts
14-Jan-20 22:40 35.214634 -116.263291 41 22268ft 412kts
14-Jan-20 22:41 35.295640 -116.161643 41 20181ft 422kts
14-Jan-20 22:42 35.378573 -116.057141 41 18083ft 430kts
14-Jan-20 22:43 35.461883 -115.951820 42 15993ft 431kts
14-Jan-20 22:44 35.542819 -115.849033 43 13961ft 383kts
14-Jan-20 22:45 35.610700 -115.762594 42 13124ft 326kts
14-Jan-20 22:46 35.677493 -115.690492 31 13109ft 350kts
14-Jan-20 22:47 35.760732 -115.618373 32 13107ft 374kts
14-Jan-20 22:48 35.845088 -115.542881 32 13106ft 374kts
14-Jan-20 22:49 35.929131 -115.467353 33 13107ft 373kts
14-Jan-20 22:50 36.004870 -115.395167 47 11263ft 310kts
14-Jan-20 22:51 36.026218 -115.307631 95 11048ft 252kts
14-Jan-20 22:52 36.019317 -115.211745 95 10063ft 298kts
14-Jan-20 22:53 36.012228 -115.107660 95 8683ft 308kts
14-Jan-20 22:54 36.006496 -115.015484 94 6841ft 243kts
14-Jan-20 22:55 36.015011 -114.936883 40 5547ft 238kts
14-Jan-20 22:56 36.070947 -114.953470 305 4286ft 234kts
14-Jan-20 22:57 36.057956 -115.011587 251 3177ft 195kts
14-Jan-20 22:58 36.070601 -115.067747 281 2825ft 142kts
14-Jan-20 22:59 36.073694 -115.123998 270 2207ft 115kts
14-Jan-20 23:00 36.073658 -115.140594 271 2184ft 29kts
14-Jan-20 23:01 36.074804 -115.146055 301 2184ft 0kts
14-Jan-20 23:02 36.074809 -115.146066 301 2184ft 1kts
14-Jan-20 23:03 36.075018 -115.153411 272 2184ft 33kts
14-Jan-20 23:04 36.075010 -115.164563 261 2184ft 10kts
14-Jan-20 23:05 36.074519 -115.167869 298 2184ft 14kts
14-Jan-20 23:06 36.076031 -115.170892 2 2184ft 9kts
14-Jan-20 23:07 36.078955 -115.170728 25 2184ft 4kts
14-Jan-20 23:08 36.081075 -115.170136 269 2184ft 2kts

Navigation Log

Ident Type
Flight plan parsing failed, navigation log unavailable